createdAt,value
2023-01-07T00:07:06.450Z,7.94
2023-01-07T00:17:09.082Z,8.03
2023-01-07T00:27:11.851Z,8.05
2023-01-07T00:37:33.009Z,8.03
2023-01-07T00:47:35.505Z,8.05
2023-01-07T00:57:37.994Z,8.10
2023-01-07T01:07:41.368Z,8.09
2023-01-07T01:17:44.054Z,8.09
2023-01-07T01:27:46.562Z,7.99
2023-01-07T01:37:48.805Z,7.93
2023-01-07T01:48:07.153Z,7.94
2023-01-07T01:58:19.214Z,7.96
2023-01-07T02:08:22.988Z,8.00
2023-01-07T02:19:17.118Z,7.97
2023-01-07T02:29:42.521Z,7.93
2023-01-07T02:40:05.715Z,7.91
2023-01-07T02:50:09.570Z,7.84
2023-01-07T03:00:16.230Z,7.74
2023-01-07T03:10:43.605Z,7.70
2023-01-07T03:20:51.814Z,7.68
2023-01-07T03:30:58.407Z,7.62
2023-01-07T03:41:01.263Z,7.60
2023-01-07T03:51:04.392Z,7.62
2023-01-07T04:01:07.140Z,7.55
2023-01-07T04:11:09.709Z,7.46
2023-01-07T04:21:12.884Z,7.36
2023-01-07T04:31:16.704Z,7.28
2023-01-07T04:41:19.115Z,7.37
2023-01-07T04:51:21.623Z,7.37
2023-01-07T05:01:25.171Z,7.21
2023-01-07T05:11:27.953Z,7.09
2023-01-07T05:21:31.343Z,6.85
2023-01-07T05:31:34.301Z,6.66
2023-01-07T05:41:37.099Z,6.62
2023-01-07T05:51:40.279Z,6.67
2023-01-07T06:01:42.585Z,6.56
2023-01-07T06:11:44.928Z,6.53
2023-01-07T06:21:47.290Z,6.57
2023-01-07T06:31:49.899Z,6.52
2023-01-07T06:41:52.398Z,6.39
2023-01-07T06:51:54.810Z,6.29
2023-01-07T07:01:57.390Z,6.31
2023-01-07T07:11:59.781Z,6.19
2023-01-07T07:22:03.999Z,6.17
2023-01-07T07:32:07.375Z,6.19
2023-01-07T07:42:11.552Z,6.07
2023-01-07T07:52:13.955Z,6.00
2023-01-07T08:02:16.286Z,5.97
2023-01-07T08:12:18.763Z,5.87
2023-01-07T08:22:21.329Z,5.79
2023-01-07T08:32:24.126Z,5.89
2023-01-07T08:42:26.773Z,5.90
2023-01-07T08:52:29.761Z,6.11
2023-01-07T09:02:33.245Z,6.40
2023-01-07T09:12:36.385Z,6.73
2023-01-07T09:22:39.455Z,7.04
2023-01-07T09:32:43.413Z,7.14
2023-01-07T09:43:09.170Z,7.07
2023-01-07T09:53:37.907Z,7.03
2023-01-07T10:03:59.128Z,7.26
2023-01-07T10:14:07.590Z,7.49
2023-01-07T10:24:23.143Z,7.59
2023-01-07T10:34:31.026Z,7.52
2023-01-07T10:44:40.530Z,7.77
2023-01-07T10:55:21.248Z,8.15
2023-01-07T11:05:32.981Z,8.16
2023-01-07T11:15:51.515Z,7.93
2023-01-07T11:25:55.278Z,7.94
2023-01-07T11:35:57.809Z,8.09
2023-01-07T11:46:19.344Z,8.43
2023-01-07T11:56:30.347Z,8.57
2023-01-07T12:06:37.980Z,8.65
2023-01-07T12:16:41.252Z,8.80
2023-01-07T12:26:59.644Z,8.99
2023-01-07T12:37:10.464Z,9.02
2023-01-07T12:47:50.180Z,9.12
2023-01-07T12:58:02.929Z,9.05
2023-01-07T13:08:33.336Z,8.84
2023-01-07T13:18:36.006Z,8.52
2023-01-07T13:29:02.887Z,8.26
2023-01-07T13:39:34.815Z,8.06
2023-01-07T13:49:37.778Z,7.76
2023-01-07T13:59:54.215Z,7.42
2023-01-07T14:09:58.004Z,7.09
2023-01-07T14:20:30.316Z,6.65
2023-01-07T14:30:42.804Z,6.33
2023-01-07T14:40:45.212Z,5.95
2023-01-07T14:51:41.876Z,5.47
2023-01-07T15:01:54.519Z,5.13
2023-01-07T15:12:22.227Z,5.00
2023-01-07T15:22:37.515Z,4.92
2023-01-07T15:32:53.083Z,4.76
2023-01-07T15:42:58.674Z,4.60
2023-01-07T15:53:23.266Z,4.31
2023-01-07T16:03:26.947Z,4.01
2023-01-07T16:13:30.035Z,3.71
2023-01-07T16:23:34.660Z,3.43
2023-01-07T16:33:40.030Z,3.03
2023-01-07T16:43:44.603Z,2.76
2023-01-07T16:53:47.056Z,2.56
2023-01-07T17:03:55.604Z,2.25
2023-01-07T17:14:06.060Z,2.08
2023-01-07T17:24:31.330Z,1.75
2023-01-07T17:34:33.990Z,1.61
2023-01-07T17:44:36.509Z,1.50
2023-01-07T17:54:40.913Z,1.46
2023-01-07T18:04:43.473Z,1.33
2023-01-07T18:14:45.931Z,1.29
2023-01-07T18:24:48.901Z,1.26
2023-01-07T18:34:51.407Z,1.29
2023-01-07T18:44:54.024Z,1.44
2023-01-07T18:54:57.441Z,1.43
2023-01-07T19:05:00.005Z,1.38
2023-01-07T19:15:02.617Z,1.37
2023-01-07T19:25:05.891Z,1.30
2023-01-07T19:35:08.838Z,1.24
2023-01-07T19:45:11.467Z,1.27
2023-01-07T19:55:15.419Z,1.42
2023-01-07T20:05:18.228Z,1.68
2023-01-07T20:15:20.684Z,1.82
2023-01-07T20:25:23.163Z,2.01
2023-01-07T20:35:25.849Z,2.06
2023-01-07T20:45:28.476Z,2.04
2023-01-07T20:55:31.079Z,2.07
2023-01-07T21:05:34.362Z,2.07
2023-01-07T21:15:38.739Z,2.03
2023-01-07T21:25:45.747Z,1.88
2023-01-07T21:35:48.504Z,1.76
2023-01-07T21:45:51.401Z,1.72
2023-01-07T21:55:55.646Z,1.89
2023-01-07T22:06:00.931Z,2.00
2023-01-07T22:16:05.613Z,1.97
2023-01-07T22:26:09.089Z,1.89
2023-01-07T22:36:21.235Z,1.92
2023-01-07T22:46:27.695Z,1.89
2023-01-07T22:56:30.667Z,1.85
2023-01-07T23:06:33.459Z,1.81
2023-01-07T23:16:36.756Z,1.64
2023-01-07T23:26:40.079Z,1.54
2023-01-07T23:36:42.617Z,1.43
2023-01-07T23:46:45.523Z,1.38
2023-01-07T23:56:48.387Z,1.33
